Time,TemperatureF,DewpointF,PressureIn,WindDirection,WindDirectionDegrees,WindSpeedMPH,WindSpeedGustMPH,Humidity,HourlyPrecipIn,Conditions,Clouds,dailyrainin,SolarRadiationWatts/m^2,SoftwareType,DateUTC
2014-01-01 02:22:00,-20.0,-28.0,-100.00,North,-999,0.0,2.0,64,0.00,,,-99.99,0.000000,,2014-01-01 08:22:00,
2014-01-01 02:32:00,-20.0,-28.0,-100.00,North,-999,0.0,2.0,64,0.00,,,-99.99,0.000000,,2014-01-01 08:32:00,
2014-01-01 02:42:00,-20.0,-28.0,-100.00,North,-999,0.0,2.0,64,0.00,,,-99.99,0.000000,,2014-01-01 08:42:00,
2014-01-01 03:00:00,-15.0,-23.0,-100.00,NW,315,1.0,2.0,67,0.00,,,-99.99,0.000000,,2014-01-01 09:00:00,
2014-01-01 03:43:00,-15.0,-23.0,-100.00,NW,315,1.0,2.0,67,0.00,,,-99.99,0.000000,,2014-01-01 09:43:00,
2014-01-01 03:53:00,-15.0,-23.0,-100.00,NW,315,1.0,2.0,67,0.00,,,-99.99,0.000000,,2014-01-01 09:53:00,
2014-01-01 04:00:00,-16.0,-24.0,-100.00,North,-999,0.0,2.0,66,0.00,,,-99.99,0.000000,,2014-01-01 10:00:00,
2014-01-01 04:23:00,-16.0,-24.0,-100.00,North,-999,0.0,2.0,66,0.00,,,-99.99,0.000000,,2014-01-01 10:23:00,
2014-01-01 04:34:00,-16.0,-24.0,-100.00,North,-999,0.0,2.0,66,0.00,,,-99.99,0.000000,,2014-01-01 10:34:00,
2014-01-01 04:43:00,-16.0,-24.0,-100.00,North,-999,0.0,2.0,66,0.00,,,-99.99,0.000000,,2014-01-01 10:43:00,
2014-01-01 04:53:00,-16.0,-24.0,-100.00,North,-999,0.0,2.0,66,0.00,,,-99.99,0.000000,,2014-01-01 10:53:00,
2014-01-01 05:00:00,-17.0,-25.0,-100.00,NE,56,1.0,2.0,67,0.00,,,-99.99,0.000000,,2014-01-01 11:00:00,
2014-01-01 05:42:00,-17.0,-25.0,-100.00,NE,56,1.0,2.0,67,0.00,,,-99.99,0.000000,,2014-01-01 11:42:00,
2014-01-01 05:53:00,-17.0,-25.0,-100.00,NE,56,1.0,2.0,67,0.00,,,-99.99,0.000000,,2014-01-01 11:53:00,
2014-01-01 06:00:00,-16.0,-24.0,-100.00,NW,325,1.0,2.0,67,0.00,,,-99.99,0.000000,,2014-01-01 12:00:00,
2014-01-01 06:42:00,-16.0,-24.0,-100.00,NW,325,1.0,2.0,67,0.00,,,-99.99,0.000000,,2014-01-01 12:42:00,
2014-01-01 06:52:00,-16.0,-24.0,-100.00,NW,325,1.0,2.0,67,0.00,,,-99.99,0.000000,,2014-01-01 12:52:00,
2014-01-01 07:00:00,-11.0,-18.0,-100.00,NNW,329,2.0,4.0,70,0.00,,,-99.99,0.000000,,2014-01-01 13:00:00,
2014-01-01 07:22:00,-11.0,-18.0,-100.00,NNW,329,2.0,4.0,70,0.00,,,-99.99,0.000000,,2014-01-01 13:22:00,
2014-01-01 07:32:00,-11.0,-18.0,-100.00,NNW,329,2.0,4.0,70,0.00,,,-99.99,0.000000,,2014-01-01 13:32:00,
2014-01-01 07:42:00,-11.0,-18.0,-100.00,NNW,329,2.0,4.0,70,0.00,,,-99.99,0.000000,,2014-01-01 13:42:00,
2014-01-01 07:52:00,-11.0,-18.0,-100.00,NNW,329,2.0,4.0,70,0.00,,,-99.99,0.000000,,2014-01-01 13:52:00,
2014-01-01 08:00:00,-11.0,-18.0,-100.00,ENE,58,1.0,4.0,70,0.00,,,-99.99,0.000000,,2014-01-01 14:00:00,
2014-01-01 08:42:00,-11.0,-18.0,-100.00,ENE,58,1.0,4.0,70,0.00,,,-99.99,0.000000,,2014-01-01 14:42:00,
2014-01-01 08:53:00,-11.0,-18.0,-100.00,ENE,58,1.0,4.0,70,0.00,,,-99.99,0.000000,,2014-01-01 14:53:00,
2014-01-01 09:00:00,-9.0,-16.0,-100.00,North,-999,0.0,2.0,70,0.00,,,-99.99,8.000000,,2014-01-01 15:00:00,
2014-01-01 09:22:00,-9.0,-16.0,-100.00,North,-999,0.0,2.0,70,0.00,,,-99.99,8.000000,,2014-01-01 15:22:00,
2014-01-01 09:33:00,-9.0,-16.0,-100.00,North,-999,0.0,2.0,70,0.00,,,-99.99,8.000000,,2014-01-01 15:33:00,
2014-01-01 09:43:00,-9.0,-16.0,-100.00,North,-999,0.0,2.0,70,0.00,,,-99.99,8.000000,,2014-01-01 15:43:00,
2014-01-01 09:53:00,-9.0,-16.0,-100.00,North,-999,0.0,2.0,70,0.00,,,-99.99,8.000000,,2014-01-01 15:53:00,
2014-01-01 10:00:00,-4.0,-11.0,-100.00,NNW,342,4.0,6.0,70,0.00,,,-99.99,32.000000,,2014-01-01 16:00:00,
2014-01-01 10:43:00,-4.0,-11.0,-100.00,NNW,342,4.0,6.0,70,0.00,,,-99.99,32.000000,,2014-01-01 16:43:00,
2014-01-01 10:53:00,-4.0,-11.0,-100.00,NNW,342,4.0,6.0,70,0.00,,,-99.99,32.000000,,2014-01-01 16:53:00,
2014-01-01 11:00:00,-1.0,-9.0,-100.00,NW,326,3.0,8.0,69,0.00,,,-99.99,48.000000,,2014-01-01 17:00:00,
2014-01-01 11:43:00,-1.0,-9.0,-100.00,NW,326,3.0,8.0,69,0.00,,,-99.99,48.000000,,2014-01-01 17:43:00,
2014-01-01 11:52:00,-1.0,-9.0,-100.00,NW,326,3.0,8.0,69,0.00,,,-99.99,48.000000,,2014-01-01 17:52:00,
2014-01-01 12:00:00,0.0,-8.0,-100.00,North,351,4.0,7.0,67,0.00,,,-99.99,44.000000,,2014-01-01 18:00:00,
2014-01-01 12:42:00,0.0,-8.0,-100.00,North,351,4.0,7.0,67,0.00,,,-99.99,44.000000,,2014-01-01 18:42:00,
2014-01-01 12:53:00,0.0,-8.0,-100.00,North,351,4.0,7.0,67,0.00,,,-99.99,44.000000,,2014-01-01 18:53:00,
2014-01-01 13:00:00,1.0,-8.0,-100.00,NNW,338,4.0,8.0,65,0.00,,,-99.99,44.000000,,2014-01-01 19:00:00,
2014-01-01 13:42:00,1.0,-8.0,-100.00,NNW,338,4.0,8.0,65,0.00,,,-99.99,44.000000,,2014-01-01 19:42:00,
2014-01-01 13:53:00,1.0,-8.0,-100.00,NNW,338,4.0,8.0,65,0.00,,,-99.99,44.000000,,2014-01-01 19:53:00,
2014-01-01 14:00:00,1.0,-8.0,-100.00,North,11,4.0,8.0,66,0.00,,,-99.99,37.000000,,2014-01-01 20:00:00,
2014-01-01 14:42:00,1.0,-8.0,-100.00,North,11,4.0,8.0,66,0.00,,,-99.99,37.000000,,2014-01-01 20:42:00,
2014-01-01 14:53:00,1.0,-8.0,-100.00,North,11,4.0,8.0,66,0.00,,,-99.99,37.000000,,2014-01-01 20:53:00,
2014-01-01 15:00:00,0.0,-8.0,-100.00,NNW,334,4.0,7.0,67,0.00,,,-99.99,23.000000,,2014-01-01 21:00:00,
2014-01-01 15:43:00,0.0,-8.0,-100.00,NNW,334,4.0,7.0,67,0.00,,,-99.99,23.000000,,2014-01-01 21:43:00,
2014-01-01 15:53:00,0.0,-8.0,-100.00,NNW,334,4.0,7.0,67,0.00,,,-99.99,23.000000,,2014-01-01 21:53:00,
2014-01-01 16:00:00,-1.0,-9.0,-100.00,North,354,3.0,7.0,69,0.00,,,-99.99,10.000000,,2014-01-01 22:00:00,
2014-01-01 16:42:00,-1.0,-9.0,-100.00,North,354,3.0,7.0,69,0.00,,,-99.99,10.000000,,2014-01-01 22:42:00,
2014-01-01 16:53:00,-1.0,-9.0,-100.00,North,354,3.0,7.0,69,0.00,,,-99.99,10.000000,,2014-01-01 22:53:00,
2014-01-01 17:00:00,-2.0,-9.0,-100.00,North,358,2.0,7.0,71,0.00,,,-99.99,1.000000,,2014-01-01 23:00:00,
2014-01-01 17:42:00,-2.0,-9.0,-100.00,North,358,2.0,7.0,71,0.00,,,-99.99,1.000000,,2014-01-01 23:42:00,
2014-01-01 17:53:00,-2.0,-9.0,-100.00,North,358,2.0,7.0,71,0.00,,,-99.99,1.000000,,2014-01-01 23:53:00,
2014-01-01 18:00:00,-2.0,-9.0,-100.00,NNW,344,2.0,4.0,72,0.00,,,-99.99,0.000000,,2014-01-02 00:00:00,
2014-01-01 18:22:00,-2.0,-9.0,-100.00,NNW,344,2.0,4.0,72,0.00,,,-99.99,0.000000,,2014-01-02 00:22:00,
2014-01-01 18:32:00,-2.0,-9.0,-100.00,NNW,344,2.0,4.0,72,0.00,,,-99.99,0.000000,,2014-01-02 00:32:00,
2014-01-01 18:42:00,-2.0,-9.0,-100.00,NNW,344,2.0,4.0,72,0.00,,,-99.99,0.000000,,2014-01-02 00:42:00,
2014-01-01 18:52:00,-2.0,-9.0,-100.00,NNW,344,2.0,4.0,72,0.00,,,-99.99,0.000000,,2014-01-02 00:52:00,
2014-01-01 19:00:00,-3.0,-9.0,-100.00,North,6,2.0,3.0,73,0.00,,,-99.99,0.000000,,2014-01-02 01:00:00,
2014-01-01 19:42:00,-3.0,-9.0,-100.00,North,6,2.0,3.0,73,0.00,,,-99.99,0.000000,,2014-01-02 01:42:00,
2014-01-01 19:52:00,-3.0,-9.0,-100.00,North,6,2.0,3.0,73,0.00,,,-99.99,0.000000,,2014-01-02 01:52:00,
2014-01-01 20:00:00,-3.0,-9.0,-100.00,NNW,343,2.0,4.0,74,0.00,,,-99.99,0.000000,,2014-01-02 02:00:00,
2014-01-01 20:52:00,-3.0,-9.0,-100.00,NNW,343,2.0,4.0,74,0.00,,,-99.99,0.000000,,2014-01-02 02:52:00,
2014-01-01 21:00:00,-4.0,-10.0,-100.00,NNW,338,2.0,4.0,74,0.00,,,-99.99,0.000000,,2014-01-02 03:00:00,
2014-01-01 21:43:00,-4.0,-10.0,-100.00,NNW,338,2.0,4.0,74,0.00,,,-99.99,0.000000,,2014-01-02 03:43:00,
2014-01-01 21:53:00,-4.0,-10.0,-100.00,NNW,338,2.0,4.0,74,0.00,,,-99.99,0.000000,,2014-01-02 03:53:00,
2014-01-01 22:00:00,-6.0,-12.0,-100.00,North,-999,0.0,3.0,73,0.00,,,-99.99,0.000000,,2014-01-02 04:00:00,
2014-01-01 22:43:00,-6.0,-12.0,-100.00,North,-999,0.0,3.0,73,0.00,,,-99.99,0.000000,,2014-01-02 04:43:00,
2014-01-01 22:53:00,-6.0,-12.0,-100.00,North,-999,0.0,3.0,73,0.00,,,-99.99,0.000000,,2014-01-02 04:53:00,
2014-01-01 23:00:00,-6.0,-12.0,-100.00,West,275,2.0,3.0,73,0.00,,,-99.99,0.000000,,2014-01-02 05:00:00,
2014-01-01 23:42:00,-6.0,-12.0,-100.00,West,275,2.0,3.0,73,0.00,,,-99.99,0.000000,,2014-01-02 05:42:00,
2014-01-01 23:53:00,-6.0,-12.0,-100.00,West,275,2.0,3.0,73,0.00,,,-99.99,0.000000,,2014-01-02 05:53:00,